createdAt,value
2017-09-21T15:33:49.453Z,48.93
2017-09-21T15:34:42.029Z,49.41
2017-09-21T15:35:42.372Z,48.74
2017-09-21T15:36:42.344Z,48.93
2017-09-21T15:37:42.346Z,49.12
2017-09-21T15:38:42.350Z,49.31
2017-09-21T15:39:42.066Z,49.99
2017-09-21T15:40:42.353Z,50.08
2017-09-21T15:41:42.361Z,49.51
2017-09-21T15:42:42.355Z,49.69
2017-09-21T15:43:42.049Z,49.69
2017-09-21T15:44:42.064Z,50.54
2017-09-21T15:45:42.051Z,50.63
2017-09-21T15:46:42.364Z,51.04
2017-09-21T15:47:42.365Z,51.02
2017-09-21T15:48:42.369Z,51.02
2017-09-21T15:49:42.373Z,50.92
2017-09-21T15:50:42.375Z,50.73
2017-09-21T15:51:42.375Z,50.82
2017-09-21T15:52:42.377Z,51.5
2017-09-21T15:53:42.376Z,51.79
2017-09-21T15:54:42.387Z,51.59
2017-09-21T15:55:42.383Z,52.08
2017-09-21T15:56:42.071Z,52.17
2017-09-21T15:57:42.385Z,52.26
2017-09-21T15:58:42.391Z,52.46
2017-09-21T15:59:42.389Z,51.21
2017-09-21T16:00:42.392Z,51.5
2017-09-21T16:01:42.083Z,51.31
2017-09-21T16:02:42.084Z,51.88
2017-09-21T16:03:42.395Z,52.36
2017-09-21T16:04:42.094Z,52.26
2017-09-21T16:05:42.402Z,51.69
2017-09-21T16:06:42.404Z,51.98
2017-09-21T16:07:42.409Z,50.54
2017-09-21T16:08:42.408Z,50.54
2017-09-21T16:09:42.409Z,50.34
2017-09-21T16:10:42.411Z,50.54
2017-09-21T16:11:42.411Z,51.11
2017-09-21T16:12:42.411Z,51.21
2017-09-21T16:13:42.419Z,52.46
2017-09-21T16:14:42.442Z,52.55
2017-09-21T16:15:42.117Z,52.08
2017-09-21T16:16:42.430Z,51.69
2017-09-21T16:17:42.426Z,52.26
2017-09-21T16:18:42.108Z,52.65
2017-09-21T16:19:42.440Z,51.79
2017-09-21T16:20:42.435Z,51.79
2017-09-21T16:21:42.478Z,51.69
2017-09-21T16:22:42.120Z,51.21
2017-09-21T16:23:42.442Z,50.82
2017-09-21T16:24:42.494Z,51.09
2017-09-21T16:25:42.435Z,51.67
2017-09-21T16:26:42.449Z,52.24
2017-09-21T16:27:42.438Z,52.72
2017-09-21T16:28:42.131Z,52.53
2017-09-21T16:29:42.134Z,52.24
2017-09-21T16:30:42.442Z,51.86
2017-09-21T16:31:42.136Z,52.24
2017-09-21T16:32:42.449Z,52.53
2017-09-21T16:33:42.446Z,52.62
2017-09-21T16:34:43.399Z,52.53
2017-09-21T16:35:42.451Z,52.98
2017-09-21T16:36:42.452Z,53.85
2017-09-21T16:37:42.454Z,53.27
2017-09-21T16:38:42.455Z,53.27
2017-09-21T16:39:42.462Z,53.56
2017-09-21T16:40:42.454Z,54.33
2017-09-21T16:41:42.456Z,53.94
2017-09-21T16:42:42.461Z,54.23
2017-09-21T16:43:42.456Z,54.8
2017-09-21T16:44:42.151Z,55.1
2017-09-21T16:45:42.462Z,55.29
2017-09-21T16:46:42.466Z,55.29
2017-09-21T16:47:42.469Z,55.47
2017-09-21T16:48:42.566Z,55.83
2017-09-21T16:49:42.502Z,55.57
2017-09-21T16:50:42.159Z,55.64
2017-09-21T16:51:42.157Z,56.51
2017-09-21T16:52:42.468Z,56.79
2017-09-21T16:53:42.478Z,56.79
2017-09-21T16:54:42.174Z,57.37
2017-09-21T16:55:42.164Z,58.14
2017-09-21T16:56:42.170Z,58.23
2017-09-21T16:57:42.489Z,58.97
2017-09-21T16:58:42.165Z,59.55
2017-09-21T16:59:42.478Z,60.22
2017-09-21T17:00:42.171Z,60.6
2017-09-21T17:01:42.171Z,60.7
2017-09-21T17:02:42.486Z,61.08
2017-09-21T17:03:42.487Z,60.96
2017-09-21T17:04:42.488Z,61.24
2017-09-21T17:05:42.486Z,61.91
2017-09-21T17:06:42.223Z,61.82
2017-09-21T17:07:42.530Z,61.91
2017-09-21T17:08:42.177Z,62.3
2017-09-21T17:09:42.486Z,62.26
2017-09-21T17:10:42.488Z,62.84
2017-09-21T17:11:42.485Z,63.03
2017-09-21T17:12:42.488Z,63.03
2017-09-21T17:13:42.495Z,62.93
2017-09-21T17:14:42.489Z,63.22
2017-09-21T17:15:42.488Z,63.32
2017-09-21T17:16:42.512Z,63.42
2017-09-21T17:17:42.529Z,63.7
2017-09-21T17:18:42.183Z,63.51
2017-09-21T17:19:42.179Z,63.7
2017-09-21T17:20:42.178Z,63.29
2017-09-21T17:21:42.496Z,63.22
2017-09-21T17:22:42.492Z,63.1
2017-09-21T17:23:42.492Z,63.39
2017-09-21T17:24:42.179Z,63
2017-09-21T17:25:42.179Z,63.86
2017-09-21T17:26:42.617Z,63.76
2017-09-21T17:27:42.183Z,63.57
2017-09-21T17:28:42.493Z,63.76
2017-09-21T17:29:42.676Z,63.57
2017-09-21T17:30:42.492Z,63.67
2017-09-21T17:31:42.493Z,63.96
2017-09-21T17:32:42.492Z,63.96
2017-09-21T17:33:42.492Z,64.25
2017-09-21T17:34:42.185Z,64.53
2017-09-21T17:35:42.500Z,65.39
2017-09-21T17:36:42.493Z,65.68
2017-09-21T17:37:42.494Z,65.68
2017-09-21T17:38:42.210Z,65.97
2017-09-21T17:39:42.493Z,65.94
2017-09-21T17:40:42.491Z,66.22
2017-09-21T17:41:42.180Z,66.51
2017-09-21T17:42:42.178Z,67.18
2017-09-21T17:43:42.244Z,67.18
2017-09-21T17:44:42.180Z,67.37
2017-09-21T17:45:42.505Z,67.18
2017-09-21T17:46:42.535Z,67.66
2017-09-21T17:47:42.495Z,67.94
2017-09-21T17:48:42.495Z,68.04
2017-09-21T17:49:42.270Z,68.42
2017-09-21T17:50:42.543Z,68.33
2017-09-21T17:51:42.494Z,68.71
2017-09-21T17:52:42.492Z,69.06
2017-09-21T17:53:42.496Z,69.54
2017-09-21T17:54:42.497Z,69.15
2017-09-21T17:55:42.490Z,69.44
2017-09-21T17:56:42.489Z,69.44
2017-09-21T17:57:42.485Z,69.64
2017-09-21T17:58:42.196Z,70.3
2017-09-21T17:59:42.174Z,70.3
2017-09-21T18:00:42.175Z,70.21
2017-09-21T18:01:42.489Z,70.97
2017-09-21T18:02:42.488Z,71.16
2017-09-21T18:03:42.180Z,71.26
2017-09-21T18:04:42.174Z,71.45
2017-09-21T18:05:44.388Z,71.93
2017-09-21T18:06:42.486Z,72.31
2017-09-21T18:07:42.488Z,72.22
2017-09-21T18:08:42.569Z,71.93
2017-09-21T18:09:42.487Z,72.12
2017-09-21T18:10:42.483Z,72.31
2017-09-21T18:11:42.170Z,72.31
2017-09-21T18:12:42.486Z,73.46
2017-09-21T18:13:42.480Z,73.17
2017-09-21T18:14:42.172Z,73.36
2017-09-21T18:15:42.170Z,73.36
2017-09-21T18:16:42.480Z,73.55
2017-09-21T18:17:42.478Z,74.61
2017-09-21T18:18:42.478Z,74.8
2017-09-21T18:19:42.478Z,74.99
2017-09-21T18:20:42.527Z,75.62
2017-09-21T18:21:42.163Z,75.62
2017-09-21T18:22:42.162Z,75.52
2017-09-21T18:23:42.476Z,76
2017-09-21T18:24:42.163Z,75.71
2017-09-21T18:25:42.182Z,76.1
2017-09-21T18:26:42.473Z,76.48
2017-09-21T18:27:42.156Z,76.1
2017-09-21T18:28:42.159Z,76.1
2017-09-21T18:29:42.483Z,76.39
2017-09-21T18:30:42.472Z,76.39
2017-09-21T18:31:42.155Z,76.29
2017-09-21T18:32:42.466Z,76.39
2017-09-21T18:33:42.479Z,77.34
2017-09-21T18:34:42.463Z,77.72
2017-09-21T18:35:42.468Z,77.34
2017-09-21T18:36:42.152Z,77.25
2017-09-21T18:37:42.468Z,77.82
2017-09-21T18:38:42.152Z,77.92
2017-09-21T18:39:42.460Z,78.01
2017-09-21T18:40:42.469Z,78.01
2017-09-21T18:41:42.463Z,78.58
2017-09-21T18:42:42.148Z,78.11
2017-09-21T18:43:42.145Z,78.11
2017-09-21T18:44:42.453Z,78.68
2017-09-21T18:45:42.470Z,78.49
2017-09-21T18:46:42.149Z,78.64
2017-09-21T18:47:42.477Z,78.39
2017-09-21T18:48:42.150Z,78.68
2017-09-21T18:49:42.139Z,79.02
2017-09-21T18:50:42.450Z,79.5
2017-09-21T18:51:42.218Z,79.22
2017-09-21T18:52:42.247Z,79.41
2017-09-21T18:53:42.544Z,79.02
2017-09-21T18:54:42.133Z,79.16
2017-09-21T18:55:42.444Z,79.54
2017-09-21T18:56:42.135Z,79.22
2017-09-21T18:57:42.141Z,79.69
2017-09-21T18:58:42.442Z,79.88
2017-09-21T18:59:42.130Z,79.69
2017-09-21T19:00:42.198Z,80.07
2017-09-21T19:01:42.187Z,80.17
2017-09-21T19:02:42.133Z,80.17
2017-09-21T19:03:42.696Z,80.46
2017-09-21T19:04:42.135Z,80.27
2017-09-21T19:05:42.435Z,80.74
2017-09-21T19:06:42.737Z,80.46
2017-09-21T19:07:42.512Z,80.65
2017-09-21T19:08:42.431Z,80.55
2017-09-21T19:09:42.228Z,80.74
2017-09-21T19:10:42.429Z,81.03
2017-09-21T19:11:42.232Z,80.84
2017-09-21T19:12:42.444Z,81.41
2017-09-21T19:13:42.668Z,81.51
2017-09-21T19:14:42.432Z,81.79
2017-09-21T19:15:42.470Z,81.79
2017-09-21T19:16:42.433Z,81.56
2017-09-21T19:17:42.417Z,82.18
2017-09-21T19:18:42.118Z,82.14
2017-09-21T19:19:42.476Z,82.52
2017-09-21T19:20:42.414Z,82.52
2017-09-21T19:21:42.461Z,82.71
2017-09-21T19:22:42.556Z,82.9
2017-09-21T19:23:42.111Z,83.67
2017-09-21T19:24:42.409Z,83.57
2017-09-21T19:25:42.110Z,83.86
2017-09-21T19:26:42.419Z,83.95
2017-09-21T19:27:42.423Z,84.23
2017-09-21T19:28:42.093Z,84.14
2017-09-21T19:29:42.104Z,84.91
2017-09-21T19:30:42.086Z,84.72
2017-09-21T19:31:42.418Z,85.38
2017-09-21T19:32:42.089Z,85.48
2017-09-21T19:33:42.416Z,85.58
2017-09-21T19:34:42.086Z,85.53
2017-09-21T19:35:42.401Z,85.44
2017-09-21T19:36:43.431Z,85.44
2017-09-21T19:37:42.391Z,85.91
2017-09-21T19:38:42.085Z,85.25
2017-09-21T19:39:42.633Z,85.63
2017-09-21T19:40:42.388Z,85.44
2017-09-21T19:41:42.070Z,86.39
2017-09-21T19:42:42.068Z,86.1
2017-09-21T19:43:42.425Z,86.49
2017-09-21T19:44:42.071Z,87.15
2017-09-21T19:45:42.066Z,87.54
2017-09-21T19:46:42.378Z,87.73
2017-09-21T19:47:42.091Z,87.82
2017-09-21T19:48:42.065Z,87.92
2017-09-21T19:49:42.088Z,87.78
2017-09-21T19:50:42.060Z,88.16
2017-09-21T19:51:42.471Z,88.2
2017-09-21T19:52:42.388Z,88.01
2017-09-21T19:53:42.386Z,88.2
2017-09-21T19:54:42.362Z,88.73
2017-09-21T19:55:42.385Z,88.73
2017-09-21T19:56:42.078Z,89.02
2017-09-21T19:57:42.371Z,89.21
2017-09-21T19:58:42.356Z,89.21
2017-09-21T19:59:42.351Z,89.21
2017-09-21T20:00:42.365Z,89.5
2017-09-21T20:01:42.037Z,89.59
2017-09-21T20:02:42.235Z,89.59
2017-09-21T20:03:42.252Z,89.12
2017-09-21T20:04:42.135Z,89.21
2017-09-21T20:05:42.362Z,89.4
2017-09-21T20:06:42.108Z,89.59
2017-09-21T20:07:42.069Z,89.5
2017-09-21T20:08:42.358Z,89.88
2017-09-21T20:09:42.358Z,90.64
2017-09-21T20:10:42.020Z,90.45
2017-09-21T20:11:42.367Z,90.07
2017-09-21T20:12:42.017Z,90.45
2017-09-21T20:13:42.019Z,89.97
2017-09-21T20:14:42.478Z,90.64
2017-09-21T20:15:42.368Z,90.73
2017-09-21T20:16:42.011Z,90.93
2017-09-21T20:17:42.319Z,91.12
2017-09-21T20:18:42.018Z,91.21
2017-09-21T20:19:42.004Z,91.12
2017-09-21T20:20:42.318Z,91.69
2017-09-21T20:21:42.382Z,91.5
2017-09-21T20:22:42.309Z,91.98
2017-09-21T20:23:42.335Z,91.78
2017-09-21T20:24:42.012Z,92.36
2017-09-21T20:25:42.300Z,91.98
2017-09-21T20:26:42.015Z,92.26
2017-09-21T20:27:42.314Z,92.46
2017-09-21T20:28:41.987Z,92.07
2017-09-21T20:29:41.988Z,91.98
2017-09-21T20:30:42.290Z,92.07
2017-09-21T20:31:41.981Z,92.46
2017-09-21T20:32:42.298Z,92.55
2017-09-21T20:33:42.290Z,92.74
2017-09-21T20:34:41.975Z,92.93
2017-09-21T20:35:41.978Z,92.93
2017-09-21T20:36:42.340Z,92.93
2017-09-21T20:37:41.970Z,92.26
2017-09-21T20:38:41.969Z,92.26
2017-09-21T20:39:42.276Z,92.26
2017-09-21T20:40:42.275Z,92.65
2017-09-21T20:41:42.017Z,92.65
2017-09-21T20:42:42.275Z,92.65
2017-09-21T20:43:42.271Z,92.83
2017-09-21T20:44:42.266Z,92.36
2017-09-21T20:45:42.268Z,92.83
2017-09-21T20:46:42.260Z,92.55
2017-09-21T20:47:42.265Z,92.83
2017-09-21T20:48:41.943Z,92.83
2017-09-21T20:49:41.968Z,93.12
2017-09-21T20:50:42.251Z,92.83
2017-09-21T20:51:41.988Z,93.22
2017-09-21T20:52:42.251Z,93.51
2017-09-21T20:53:42.248Z,93.02
2017-09-21T20:54:42.247Z,93.02
2017-09-21T20:55:42.243Z,92.83
2017-09-21T20:56:42.238Z,92.93
2017-09-21T20:57:42.241Z,92.83
2017-09-21T20:58:41.953Z,92.83
2017-09-21T20:59:42.439Z,92.74
2017-09-21T21:00:42.257Z,93.22
2017-09-21T21:01:41.915Z,93.12
2017-09-21T21:02:42.226Z,93.79
2017-09-21T21:03:41.911Z,93.6
2017-09-21T21:04:41.913Z,93.7
2017-09-21T21:05:42.265Z,93.36
2017-09-21T21:06:42.223Z,93.65
2017-09-21T21:07:42.221Z,93.65
2017-09-21T21:08:41.898Z,93.27
2017-09-21T21:09:41.898Z,93.46
2017-09-21T21:10:42.231Z,94.7
2017-09-21T21:11:41.895Z,94.41
2017-09-21T21:12:41.891Z,94.51
2017-09-21T21:13:41.893Z,94.89
2017-09-21T21:14:41.887Z,95.17
2017-09-21T21:15:41.909Z,95.17
2017-09-21T21:16:42.202Z,95.17
2017-09-21T21:17:42.190Z,95.56
2017-09-21T21:18:42.189Z,95.37
2017-09-21T21:19:42.214Z,95.65
2017-09-21T21:20:42.196Z,95.56
2017-09-21T21:21:41.919Z,96.13
2017-09-21T21:22:41.871Z,96.22
2017-09-21T21:23:42.181Z,96.03
2017-09-21T21:24:41.863Z,96.22
2017-09-21T21:25:42.172Z,96.22
2017-09-21T21:26:42.168Z,96.03
2017-09-21T21:27:42.175Z,96.32
2017-09-21T21:28:41.857Z,96.22
2017-09-21T21:29:42.184Z,96.51
2017-09-21T21:30:42.159Z,96.41
2017-09-21T21:31:41.847Z,96.51
2017-09-21T21:32:42.160Z,96.98
2017-09-21T21:33:42.155Z,96.61
2017-09-21T21:34:42.156Z,96.61
2017-09-21T21:35:42.148Z,96.8
2017-09-21T21:36:42.144Z,96.7
2017-09-21T21:37:41.860Z,96.89
2017-09-21T21:38:41.843Z,97.56
2017-09-21T21:39:41.834Z,97.56
2017-09-21T21:40:41.822Z,97.17
2017-09-21T21:41:41.825Z,96.7
2017-09-21T21:42:41.817Z,96.8
2017-09-21T21:43:41.815Z,96.89
2017-09-21T21:44:42.125Z,97.46
2017-09-21T21:45:42.127Z,97.37
2017-09-21T21:46:41.809Z,97.27
2017-09-21T21:47:42.123Z,96.89
2017-09-21T21:48:41.802Z,96.98
2017-09-21T21:49:42.122Z,97.46
2017-09-21T21:50:42.109Z,96.8
2017-09-21T21:51:42.161Z,97.46
2017-09-21T21:52:42.110Z,97.41
2017-09-21T21:53:42.105Z,97.94
2017-09-21T21:54:42.101Z,98.03
2017-09-21T21:55:42.106Z,97.7
2017-09-21T21:56:41.785Z,98.32
2017-09-21T21:57:41.784Z,98.27
2017-09-21T21:58:42.101Z,98.75
2017-09-21T21:59:41.784Z,98.36
2017-09-21T22:00:42.081Z,97.99
2017-09-21T22:01:42.086Z,97.99
2017-09-21T22:02:42.078Z,98.46
2017-09-21T22:03:42.080Z,98.46
2017-09-21T22:04:41.762Z,98.18
2017-09-21T22:05:42.072Z,98.56
2017-09-21T22:06:41.812Z,99.04
2017-09-21T22:07:42.075Z,98.75
2017-09-21T22:08:41.754Z,98.75
2017-09-21T22:09:41.748Z,99.13
2017-09-21T22:10:41.746Z,98.75
2017-09-21T22:11:42.054Z,99.13
2017-09-21T22:12:42.053Z,98.94
2017-09-21T22:13:41.739Z,99.32
2017-09-21T22:14:42.052Z,99.13
2017-09-21T22:15:42.053Z,99.32
2017-09-21T22:16:42.046Z,99.7
2017-09-21T22:17:41.725Z,99.99
2017-09-21T22:18:42.044Z,99.99
2017-09-21T22:19:42.033Z,99.99
2017-09-21T22:20:42.032Z,99.8
2017-09-21T22:21:42.030Z,99.99
2017-09-21T22:22:42.025Z,99.99
2017-09-21T22:23:41.713Z,99.99
2017-09-21T22:24:41.708Z,99.99
2017-09-21T22:25:42.019Z,99.99
2017-09-21T22:26:42.014Z,99.99
2017-09-21T22:27:42.021Z,99.99
2017-09-21T22:28:42.013Z,99.99
2017-09-21T22:59:33.510Z,99.99
2017-09-21T23:00:31.898Z,99.99
2017-09-21T23:01:31.886Z,99.99
2017-09-21T23:02:31.878Z,99.99
2017-09-21T23:03:31.874Z,99.99
2017-09-21T23:04:31.552Z,99.99
2017-09-21T23:05:31.858Z,99.99
2017-09-21T23:06:31.540Z,99.99
2017-09-21T23:07:31.533Z,99.99
2017-09-21T23:08:31.526Z,99.99
2017-09-21T23:09:31.834Z,99.99
2017-09-21T23:10:31.829Z,99.99
2017-09-21T23:11:31.822Z,99.99
2017-09-21T23:12:31.825Z,99.99
2017-09-21T23:13:31.501Z,99.99
2017-09-21T23:14:31.864Z,99.99
2017-09-21T23:15:31.497Z,99.99
2017-09-21T23:16:31.803Z,99.99
2017-09-21T23:17:31.794Z,99.99
2017-09-21T23:18:31.482Z,99.99
2017-09-21T23:19:31.787Z,99.99
2017-09-21T23:20:31.784Z,99.99
2017-09-21T23:21:31.469Z,99.99
2017-09-21T23:22:31.465Z,99.99
2017-09-21T23:23:31.773Z,99.99
2017-09-21T23:26:03.275Z,99.99
2017-09-21T23:26:51.846Z,99.99
2017-09-21T23:27:52.150Z,99.99
2017-09-21T23:28:51.841Z,99.99
2017-09-21T23:29:51.842Z,99.99
2017-09-21T23:30:52.142Z,99.99
2017-09-21T23:31:52.141Z,99.99
2017-09-21T23:32:52.144Z,99.99
2017-09-21T23:33:51.823Z,99.99
2017-09-21T23:34:52.132Z,99.99
2017-09-21T23:35:52.128Z,99.99
2017-09-21T23:36:51.813Z,99.99
2017-09-21T23:37:52.118Z,99.99
2017-09-21T23:38:52.121Z,99.99
2017-09-21T23:39:52.109Z,99.99
2017-09-21T23:40:52.108Z,99.99
2017-09-21T23:41:52.102Z,99.99
2017-09-21T23:42:52.099Z,99.99
2017-09-21T23:43:52.136Z,99.99
2017-09-21T23:44:52.095Z,99.99
2017-09-21T23:45:51.783Z,99.99
2017-09-21T23:46:52.094Z,99.99
2017-09-21T23:47:52.089Z,99.99
2017-09-21T23:48:51.771Z,99.99
2017-09-21T23:49:52.081Z,99.99
2017-09-21T23:50:52.086Z,99.99
2017-09-21T23:51:51.769Z,99.99
2017-09-21T23:52:51.759Z,99.99
2017-09-21T23:53:52.065Z,99.99
2017-09-21T23:54:52.070Z,99.99
2017-09-21T23:55:52.061Z,99.99
2017-09-21T23:56:52.059Z,99.99
2017-09-21T23:57:51.748Z,99.99
2017-09-21T23:58:52.051Z,99.99
2017-09-21T23:59:52.044Z,99.99
